Time;durP1;ratioP1;P1;durP2;ratioP2;P2;SDS_P1;SDS_P2;PMS_P1;PMS_P2;Temp;Humidity;BMP_temperature;BMP_pressure;BME280_temperature;BME280_humidity;BME280_pressure;Samples;Min_cycle;Max_cycle;Signal;HPM_P1;HPM_P2
2022/06/24 00:00:01;;;;;;;3.63;2.53;;;23.00;65.30;;;;;;5052976;28;20035;-67
2022/06/24 00:02:27;;;;;;;3.70;2.55;;;23.00;65.50;;;;;;5067702;28;20034;-67
2022/06/24 00:04:55;;;;;;;5.38;3.08;;;23.00;65.70;;;;;;5072521;28;20111;-67
2022/06/24 00:07:21;;;;;;;3.25;2.30;;;23.00;65.90;;;;;;5066047;28;20108;-68
2022/06/24 00:09:47;;;;;;;6.70;2.92;;;22.90;65.90;;;;;;5056680;28;20132;-68
2022/06/24 00:12:15;;;;;;;4.32;2.63;;;22.90;66.10;;;;;;5055213;28;20475;-67
2022/06/24 00:14:42;;;;;;;3.17;2.40;;;22.80;66.20;;;;;;5071082;28;20056;-68
2022/06/24 00:17:09;;;;;;;3.40;2.60;;;22.80;66.50;;;;;;5070291;28;20020;-69
2022/06/24 00:19:56;;;;;;;4.25;3.35;;;22.80;66.60;;;;;;5071335;28;20422;-69
2022/06/24 00:22:24;;;;;;;4.13;2.65;;;22.70;66.60;;;;;;5070023;28;20032;-69
2022/06/24 00:25:12;;;;;;;3.70;2.63;;;22.70;66.80;;;;;;5072246;28;20036;-69
2022/06/24 00:27:39;;;;;;;3.42;2.60;;;22.70;67.00;;;;;;5051945;28;20086;-68
2022/06/24 00:30:13;;;;;;;4.03;2.60;;;22.60;67.10;;;;;;5055478;28;20110;-67
2022/06/24 00:32:40;;;;;;;5.68;2.85;;;22.60;67.40;;;;;;5071192;28;20495;-67
2022/06/24 00:35:12;;;;;;;5.05;2.63;;;22.50;67.40;;;;;;5071081;28;20382;-67
2022/06/24 00:37:39;;;;;;;4.15;2.60;;;22.50;67.60;;;;;;5060024;28;20063;-68
2022/06/24 00:40:11;;;;;;;5.32;2.65;;;22.40;67.70;;;;;;5070316;28;20025;-67
2022/06/24 00:42:38;;;;;;;4.90;2.65;;;22.40;67.90;;;;;;5065725;28;20037;-68
2022/06/24 00:45:07;;;;;;;3.78;2.80;;;22.40;68.10;;;;;;5055158;28;20482;-68
2022/06/24 00:47:35;;;;;;;5.25;2.80;;;22.30;68.20;;;;;;5070361;28;20129;-68
2022/06/24 00:50:11;;;;;;;3.22;2.72;;;22.30;68.40;;;;;;5071496;28;20135;-68
2022/06/24 00:52:37;;;;;;;5.05;3.45;;;22.20;68.60;;;;;;5077811;28;20545;-67
2022/06/24 00:55:04;;;;;;;3.90;2.90;;;22.20;68.60;;;;;;5055081;28;20369;-68
2022/06/24 00:57:36;;;;;;;4.47;3.20;;;22.20;68.70;;;;;;5055684;28;20032;-68
2022/06/24 01:00:03;;;;;;;3.15;2.80;;;22.20;68.90;;;;;;5071933;28;20028;-67
2022/06/24 01:02:31;;;;;;;3.85;2.88;;;22.10;68.90;;;;;;5063189;28;20044;-67
2022/06/24 01:05:07;;;;;;;5.32;2.90;;;22.10;69.00;;;;;;5051829;28;20036;-67
2022/06/24 01:07:37;;;;;;;6.60;2.88;;;22.10;69.20;;;;;;5057176;28;20051;-67
2022/06/24 01:10:03;;;;;;;5.05;3.25;;;22.10;69.30;;;;;;5071432;28;20502;-68
2022/06/24 01:12:31;;;;;;;4.68;3.40;;;22.00;69.20;;;;;;5068458;28;20039;-68
2022/06/24 01:14:57;;;;;;;5.00;3.40;;;22.10;69.50;;;;;;5071458;28;20424;-68
2022/06/24 01:17:22;;;;;;;5.00;3.60;;;22.00;69.40;;;;;;5064980;28;20037;-67
2022/06/24 01:19:48;;;;;;;3.67;2.88;;;22.00;69.50;;;;;;5051694;28;20027;-67
2022/06/24 01:22:22;;;;;;;6.28;3.10;;;22.00;69.80;;;;;;5055636;28;20064;-68
2022/06/24 01:24:47;;;;;;;4.97;3.28;;;21.90;69.80;;;;;;5071491;28;20044;-67
2022/06/24 01:27:13;;;;;;;4.00;3.10;;;22.00;69.80;;;;;;5060923;28;20035;-67
2022/06/24 01:29:39;;;;;;;4.97;3.75;;;21.90;69.90;;;;;;5051188;28;20040;-68
2022/06/24 01:32:05;;;;;;;4.05;3.05;;;21.90;70.00;;;;;;5055282;28;20107;-68
2022/06/24 01:34:30;;;;;;;3.53;2.80;;;21.80;70.00;;;;;;5052842;28;20036;-68
2022/06/24 01:36:56;;;;;;;4.22;3.30;;;21.80;70.20;;;;;;5063023;28;20039;-68
2022/06/24 01:39:22;;;;;;;5.82;3.47;;;21.80;70.30;;;;;;5061406;28;20108;-67
2022/06/24 01:41:48;;;;;;;3.78;2.97;;;21.80;70.30;;;;;;5059752;28;20031;-68
2022/06/24 01:44:13;;;;;;;4.25;3.35;;;21.70;70.30;;;;;;5060501;28;20082;-68
2022/06/24 01:46:39;;;;;;;5.57;4.03;;;21.70;70.40;;;;;;5060718;28;20025;-69
2022/06/24 01:49:05;;;;;;;4.95;3.33;;;21.70;70.50;;;;;;5058788;28;20025;-69
2022/06/24 01:51:33;;;;;;;3.85;2.85;;;21.60;70.40;;;;;;5051214;28;20120;-69
2022/06/24 01:53:58;;;;;;;7.15;3.10;;;21.60;70.60;;;;;;5061757;28;20021;-68
2022/06/24 01:56:24;;;;;;;3.90;2.90;;;21.60;70.70;;;;;;5050999;28;20025;-68
2022/06/24 01:58:49;;;;;;;4.28;3.22;;;21.60;70.80;;;;;;5060640;28;20421;-68
2022/06/24 02:01:15;;;;;;;4.20;3.33;;;21.60;70.90;;;;;;5059456;28;20533;-68
2022/06/24 02:03:41;;;;;;;4.85;3.45;;;21.50;70.90;;;;;;5064415;28;20043;-68
2022/06/24 02:06:09;;;;;;;4.68;3.13;;;21.60;71.00;;;;;;5069761;28;20032;-68
2022/06/24 02:08:35;;;;;;;4.80;3.58;;;21.50;71.10;;;;;;5061536;28;20049;-68
2022/06/24 02:13:49;;;;;;;3.90;2.97;;;21.50;71.10;;;;;;5058440;28;20090;-67
2022/06/24 02:16:15;;;;;;;4.38;3.15;;;21.50;71.40;;;;;;5050789;28;20021;-68
2022/06/24 02:18:41;;;;;;;6.40;3.33;;;21.40;71.30;;;;;;5060012;28;20107;-68
2022/06/24 02:21:07;;;;;;;5.20;3.55;;;21.40;71.50;;;;;;5065854;28;20100;-68
2022/06/24 02:23:33;;;;;;;7.15;3.38;;;21.40;71.50;;;;;;5060282;28;20029;-68
2022/06/24 02:25:59;;;;;;;3.97;3.50;;;21.40;71.50;;;;;;5054328;28;20040;-68
2022/06/24 02:28:25;;;;;;;4.22;3.30;;;21.40;71.70;;;;;;5065840;28;20024;-68
2022/06/24 02:30:55;;;;;;;5.68;3.70;;;21.30;71.80;;;;;;5074148;28;20095;-68
2022/06/24 02:33:21;;;;;;;5.30;3.70;;;21.30;72.00;;;;;;5071009;28;20028;-68
2022/06/24 02:35:47;;;;;;;3.58;2.50;;;21.30;72.00;;;;;;5054708;28;20025;-68
2022/06/24 02:38:13;;;;;;;4.45;3.78;;;21.30;72.10;;;;;;5063124;28;20345;-68
2022/06/24 02:40:47;;;;;;;6.22;4.22;;;21.30;72.00;;;;;;5074616;28;20033;-68
2022/06/24 02:43:17;;;;;;;5.55;3.83;;;21.30;72.20;;;;;;5067093;28;20034;-67
2022/06/24 02:45:45;;;;;;;5.15;3.70;;;21.30;72.20;;;;;;5074212;28;20044;-68
2022/06/24 02:48:11;;;;;;;7.55;4.18;;;21.30;72.30;;;;;;5067868;28;20104;-68
2022/06/24 02:50:44;;;;;;;4.78;3.58;;;21.30;72.40;;;;;;5054290;28;20600;-68
2022/06/24 02:53:10;;;;;;;5.32;3.92;;;21.20;72.50;;;;;;5061548;28;20067;-68
2022/06/24 02:55:36;;;;;;;4.65;3.50;;;21.20;72.40;;;;;;5072664;28;20115;-68
2022/06/24 02:58:03;;;;;;;5.75;3.78;;;21.20;72.50;;;;;;5067949;28;20029;-68
2022/06/24 03:00:28;;;;;;;3.78;3.17;;;21.20;72.70;;;;;;5054084;28;20108;-68
2022/06/24 03:02:54;;;;;;;4.63;3.35;;;21.20;72.80;;;;;;5064723;28;20535;-68
2022/06/24 03:05:20;;;;;;;5.97;3.95;;;21.20;72.80;;;;;;5073596;28;20060;-68
2022/06/24 03:07:45;;;;;;;4.93;3.83;;;21.20;72.90;;;;;;5067926;28;20063;-68
2022/06/24 03:10:11;;;;;;;5.55;3.50;;;21.20;73.00;;;;;;5073884;28;20024;-68
2022/06/24 03:12:37;;;;;;;7.07;3.88;;;21.20;73.20;;;;;;5069187;28;20111;-68
2022/06/24 03:15:02;;;;;;;4.22;3.50;;;21.20;73.20;;;;;;5055247;28;20123;-68
2022/06/24 03:17:28;;;;;;;7.00;3.70;;;21.20;73.30;;;;;;5069903;28;20060;-68
2022/06/24 03:19:53;;;;;;;4.43;3.72;;;21.20;73.20;;;;;;5054338;28;20112;-68
2022/06/24 03:22:19;;;;;;;5.50;3.25;;;21.20;73.40;;;;;;5058244;28;20035;-68
2022/06/24 03:24:44;;;;;;;6.78;3.53;;;21.20;73.40;;;;;;5072145;28;20028;-68
2022/06/24 03:27:10;;;;;;;5.78;3.47;;;21.10;73.30;;;;;;5053624;28;20033;-68
2022/06/24 03:29:54;;;;;;;5.03;3.97;;;21.10;73.60;;;;;;5056531;28;20518;-68
2022/06/24 03:32:20;;;;;;;6.60;4.05;;;21.10;73.60;;;;;;5072037;28;20067;-68
2022/06/24 03:34:46;;;;;;;4.45;3.67;;;21.10;73.70;;;;;;5070630;28;20131;-68
2022/06/24 03:37:11;;;;;;;6.55;3.50;;;21.10;73.80;;;;;;5073314;28;20017;-68
2022/06/24 03:39:37;;;;;;;5.55;4.10;;;21.10;73.90;;;;;;5055914;28;20087;-68
2022/06/24 03:42:03;;;;;;;4.60;3.95;;;21.00;73.80;;;;;;5067855;28;20025;-68
2022/06/24 03:44:29;;;;;;;4.05;3.60;;;21.00;73.90;;;;;;5068308;28;20572;-68
2022/06/24 03:46:55;;;;;;;6.32;3.72;;;21.10;73.90;;;;;;5053623;28;20538;-68
2022/06/24 03:49:20;;;;;;;5.05;3.55;;;21.10;73.90;;;;;;5064283;28;20026;-68
2022/06/24 03:51:46;;;;;;;5.50;3.70;;;21.10;73.90;;;;;;5053327;28;20029;-68
2022/06/24 03:54:12;;;;;;;5.93;4.30;;;21.10;74.20;;;;;;5063941;28;20024;-69
2022/06/24 03:56:37;;;;;;;4.50;3.83;;;21.10;74.30;;;;;;5053099;28;20155;-68
2022/06/24 03:59:03;;;;;;;6.88;3.90;;;21.10;74.30;;;;;;5071736;28;20035;-68
2022/06/24 04:01:29;;;;;;;5.38;3.78;;;21.10;74.30;;;;;;5071459;28;20029;-69
2022/06/24 04:03:54;;;;;;;4.82;3.83;;;21.10;74.30;;;;;;5071278;28;20031;-68
2022/06/24 04:06:20;;;;;;;5.65;4.10;;;21.10;74.30;;;;;;5072791;28;20042;-69
2022/06/24 04:08:46;;;;;;;6.15;3.72;;;21.10;74.30;;;;;;5069640;28;20049;-69
2022/06/24 04:11:13;;;;;;;6.05;3.83;;;21.20;74.10;;;;;;5072486;28;20024;-68
2022/06/24 04:13:38;;;;;;;5.88;4.05;;;21.20;74.40;;;;;;5058666;28;20025;-69
2022/06/24 04:16:04;;;;;;;8.63;4.47;;;21.20;74.40;;;;;;5065179;28;20116;-68
2022/06/24 04:18:30;;;;;;;4.43;3.80;;;21.30;74.50;;;;;;5067237;28;20036;-68
2022/06/24 04:20:56;;;;;;;4.80;3.83;;;21.30;74.50;;;;;;5072496;28;20028;-68
2022/06/24 04:23:22;;;;;;;5.53;4.47;;;21.30;74.70;;;;;;5065526;28;20047;-68
2022/06/24 04:25:48;;;;;;;5.32;4.30;;;21.30;74.50;;;;;;5053025;28;20079;-68
2022/06/24 04:28:13;;;;;;;6.57;3.65;;;21.40;74.60;;;;;;5059066;28;20025;-68
2022/06/24 04:30:39;;;;;;;5.82;3.97;;;21.40;74.60;;;;;;5052282;28;20368;-68
2022/06/24 04:33:05;;;;;;;4.47;3.40;;;21.40;74.50;;;;;;5055895;28;20464;-68
2022/06/24 04:35:30;;;;;;;4.57;3.97;;;21.50;74.40;;;;;;5072166;28;20525;-68
2022/06/24 04:37:56;;;;;;;4.25;3.47;;;21.50;74.30;;;;;;5069548;28;20059;-68
2022/06/24 04:40:22;;;;;;;5.93;4.35;;;21.60;74.50;;;;;;5059311;28;20050;-68
2022/06/24 04:42:48;;;;;;;4.93;4.07;;;21.60;74.30;;;;;;5070706;28;20062;-68
2022/06/24 04:45:13;;;;;;;5.72;4.07;;;21.60;74.10;;;;;;5067701;28;20041;-68
2022/06/24 04:47:39;;;;;;;6.00;4.15;;;21.70;74.10;;;;;;5070712;28;20027;-68
2022/06/24 04:50:06;;;;;;;7.60;3.67;;;21.70;74.30;;;;;;5052945;28;20028;-68
2022/06/24 04:52:32;;;;;;;8.00;4.10;;;21.80;74.20;;;;;;5070021;28;20384;-68
2022/06/24 04:54:59;;;;;;;4.60;3.47;;;21.80;74.40;;;;;;5061804;28;20038;-68
2022/06/24 04:57:25;;;;;;;6.60;4.07;;;21.80;74.20;;;;;;5052999;28;20074;-68
2022/06/24 04:59:50;;;;;;;7.20;3.97;;;21.90;74.50;;;;;;5067483;28;20116;-67
2022/06/24 05:02:16;;;;;;;5.60;3.78;;;22.00;74.30;;;;;;5065357;28;20043;-67
2022/06/24 05:04:42;;;;;;;4.75;3.80;;;22.00;74.10;;;;;;5054097;28;20036;-68
2022/06/24 05:07:07;;;;;;;6.38;3.70;;;22.00;74.20;;;;;;5051726;28;20035;-68
2022/06/24 05:09:33;;;;;;;4.18;3.45;;;22.10;74.10;;;;;;5067559;28;20471;-68
2022/06/24 05:11:59;;;;;;;5.53;4.22;;;22.10;74.10;;;;;;5052213;28;20047;-68
2022/06/24 05:14:25;;;;;;;4.57;3.50;;;22.20;74.10;;;;;;5052171;28;20116;-67
2022/06/24 05:16:51;;;;;;;4.53;3.53;;;22.30;74.00;;;;;;5059306;28;20117;-67
2022/06/24 05:19:16;;;;;;;6.60;3.92;;;22.30;73.90;;;;;;5065241;28;20416;-68
2022/06/24 05:21:42;;;;;;;6.25;3.50;;;22.40;74.00;;;;;;5056802;28;20029;-67
2022/06/24 05:24:08;;;;;;;4.53;3.45;;;22.40;73.60;;;;;;5075753;28;20028;-68
2022/06/24 05:26:34;;;;;;;4.88;3.40;;;22.50;73.90;;;;;;5059294;28;20033;-67
2022/06/24 05:29:00;;;;;;;6.05;3.65;;;22.60;73.40;;;;;;5066111;28;20669;-68
2022/06/24 05:31:26;;;;;;;6.13;3.58;;;22.60;72.70;;;;;;5076156;28;20020;-68
2022/06/24 05:33:51;;;;;;;4.93;3.40;;;22.70;72.50;;;;;;5072442;28;20025;-68
2022/06/24 05:36:17;;;;;;;12.63;4.18;;;22.80;72.30;;;;;;5052876;28;20396;-68
2022/06/24 05:38:44;;;;;;;5.18;3.20;;;22.80;71.90;;;;;;5053048;28;20059;-71
2022/06/24 05:41:09;;;;;;;4.90;3.05;;;22.90;71.80;;;;;;5051816;28;20056;-70
2022/06/24 05:43:35;;;;;;;6.05;3.40;;;23.00;71.40;;;;;;5068332;28;20407;-70
2022/06/24 05:46:00;;;;;;;6.03;3.20;;;23.10;71.50;;;;;;5071051;28;20115;-69
2022/06/24 05:48:27;;;;;;;4.57;3.10;;;23.20;71.10;;;;;;5069737;28;20059;-68
2022/06/24 05:50:53;;;;;;;6.90;3.40;;;23.30;70.80;;;;;;5057763;28;20559;-67
2022/06/24 05:56:03;;;;;;;6.88;3.63;;;23.40;70.40;;;;;;5052651;28;20499;-67
2022/06/24 05:58:29;;;;;;;6.60;3.45;;;23.50;70.00;;;;;;5061816;28;20044;-67
2022/06/24 06:00:56;;;;;;;5.47;3.40;;;23.60;69.60;;;;;;5074254;28;20058;-67
2022/06/24 06:03:26;;;;;;;3.83;3.20;;;23.60;69.50;;;;;;5065145;28;20231;-67
2022/06/24 06:05:52;;;;;;;7.97;2.80;;;23.70;69.10;;;;;;5057056;28;20094;-69
2022/06/24 06:08:18;;;;;;;8.30;3.05;;;23.80;69.10;;;;;;5054530;28;20106;-69
2022/06/24 06:10:43;;;;;;;4.40;3.50;;;23.90;68.90;;;;;;5063878;28;20450;-68
2022/06/24 06:13:13;;;;;;;5.88;2.78;;;23.90;68.80;;;;;;5075403;28;20025;-69
2022/06/24 06:15:40;;;;;;;7.22;3.22;;;24.00;68.60;;;;;;5064241;28;20051;-69
2022/06/24 06:18:06;;;;;;;3.58;2.55;;;24.10;68.20;;;;;;5068356;28;20514;-68
2022/06/24 06:20:32;;;;;;;6.03;3.33;;;24.20;67.70;;;;;;5056785;28;20115;-69
2022/06/24 06:22:57;;;;;;;4.18;2.80;;;24.20;67.80;;;;;;5062476;28;20039;-67
2022/06/24 06:25:24;;;;;;;7.05;3.55;;;24.30;67.50;;;;;;5071749;28;20347;-68
2022/06/24 06:27:50;;;;;;;4.65;2.97;;;24.40;67.40;;;;;;5067435;28;20811;-68
2022/06/24 06:30:16;;;;;;;3.88;3.00;;;24.40;66.80;;;;;;5056934;28;20032;-68
2022/06/24 06:32:41;;;;;;;6.75;3.47;;;24.50;66.50;;;;;;5053627;28;20518;-67
2022/06/24 06:35:07;;;;;;;4.13;3.00;;;24.50;66.20;;;;;;5057782;28;20032;-67
2022/06/24 06:37:33;;;;;;;5.82;3.42;;;24.70;66.00;;;;;;5067903;28;20032;-67
2022/06/24 06:39:59;;;;;;;3.67;2.90;;;24.70;66.00;;;;;;5068405;28;20032;-68
2022/06/24 06:42:25;;;;;;;6.45;3.45;;;24.80;65.80;;;;;;5058818;28;20040;-69
2022/06/24 06:44:50;;;;;;;6.38;3.90;;;24.80;65.50;;;;;;5072440;28;20033;-68
2022/06/24 06:47:16;;;;;;;7.22;4.20;;;24.90;65.20;;;;;;5072698;28;20062;-68
2022/06/24 06:49:42;;;;;;;4.55;3.05;;;24.90;65.10;;;;;;5072040;28;20033;-68
2022/06/24 06:52:07;;;;;;;5.75;3.45;;;25.10;65.00;;;;;;5072001;28;20507;-68
2022/06/24 06:54:33;;;;;;;5.35;3.70;;;25.10;64.90;;;;;;5072073;28;20031;-68
2022/06/24 06:56:59;;;;;;;5.10;3.20;;;25.20;64.90;;;;;;5072971;28;20032;-68
2022/06/24 06:59:25;;;;;;;4.63;3.17;;;25.30;64.70;;;;;;5072279;28;20546;-68
2022/06/24 07:01:50;;;;;;;5.20;3.70;;;25.30;64.10;;;;;;5059067;28;20163;-69
2022/06/24 07:04:16;;;;;;;4.22;2.97;;;25.40;64.00;;;;;;5067744;28;20055;-68
2022/06/24 07:06:41;;;;;;;5.53;3.65;;;25.50;63.70;;;;;;5071145;28;20480;-68
2022/06/24 07:09:07;;;;;;;7.22;3.30;;;25.60;63.30;;;;;;5071429;28;20507;-69
2022/06/24 07:11:33;;;;;;;6.75;3.20;;;25.70;63.40;;;;;;5065913;28;20032;-69
2022/06/24 07:14:00;;;;;;;5.85;3.25;;;25.80;63.00;;;;;;5068835;28;20357;-68
2022/06/24 07:16:26;;;;;;;4.10;2.90;;;25.90;63.20;;;;;;5059581;28;20025;-68
2022/06/24 07:18:51;;;;;;;5.97;3.25;;;26.00;62.40;;;;;;5059490;28;20079;-67
2022/06/24 07:21:17;;;;;;;6.00;3.15;;;26.00;61.90;;;;;;5055112;28;20443;-68
2022/06/24 07:23:42;;;;;;;6.45;3.00;;;26.10;61.70;;;;;;5054361;28;20116;-68
2022/06/24 07:26:08;;;;;;;8.15;3.63;;;26.20;61.80;;;;;;5053474;28;20025;-68
2022/06/24 07:28:35;;;;;;;3.72;2.88;;;26.30;61.10;;;;;;5069662;28;20029;-68
2022/06/24 07:31:00;;;;;;;5.38;3.15;;;26.40;61.30;;;;;;5072515;28;20074;-68
2022/06/24 07:33:26;;;;;;;5.05;3.10;;;26.40;60.90;;;;;;5069978;28;20025;-68
2022/06/24 07:35:51;;;;;;;5.55;3.38;;;26.40;60.40;;;;;;5052866;28;20542;-68
2022/06/24 07:38:18;;;;;;;5.00;3.25;;;26.50;60.50;;;;;;5069153;28;20418;-68
2022/06/24 07:40:43;;;;;;;4.30;3.30;;;26.70;60.20;;;;;;5059584;28;20071;-68
2022/06/24 07:43:09;;;;;;;4.65;2.90;;;26.70;59.60;;;;;;5069257;28;20407;-68
2022/06/24 07:45:35;;;;;;;5.63;3.40;;;26.80;59.30;;;;;;5060475;28;20508;-68
2022/06/24 07:48:01;;;;;;;3.40;2.97;;;26.90;58.90;;;;;;5064179;28;20028;-68
2022/06/24 07:50:27;;;;;;;4.22;2.80;;;27.00;58.40;;;;;;5070467;28;20174;-68
2022/06/24 07:52:52;;;;;;;4.60;3.20;;;27.00;58.10;;;;;;5059158;28;20054;-68
2022/06/24 07:58:02;;;;;;;7.07;3.05;;;27.20;57.70;;;;;;5066194;28;20491;-68
2022/06/24 08:00:28;;;;;;;3.47;2.78;;;27.30;57.00;;;;;;5060899;28;20036;-68
2022/06/24 08:02:54;;;;;;;6.57;2.78;;;27.30;56.60;;;;;;5068096;28;20024;-68
2022/06/24 08:05:19;;;;;;;4.38;2.42;;;27.40;56.40;;;;;;5071044;28;20036;-68
2022/06/24 08:07:45;;;;;;;5.80;2.83;;;27.50;56.00;;;;;;5069477;28;20093;-69
2022/06/24 08:10:11;;;;;;;8.52;3.53;;;27.60;56.40;;;;;;5071231;28;20024;-68
2022/06/24 08:12:37;;;;;;;6.47;3.15;;;27.70;56.00;;;;;;5069781;28;20034;-68
2022/06/24 08:15:03;;;;;;;4.38;3.00;;;27.70;55.90;;;;;;5055959;28;20389;-68
2022/06/24 08:17:28;;;;;;;5.28;2.92;;;27.80;55.90;;;;;;5055270;28;20154;-68
2022/06/24 08:19:54;;;;;;;3.80;2.45;;;27.90;55.80;;;;;;5068760;28;20028;-68
2022/06/24 08:22:21;;;;;;;4.38;3.03;;;27.90;56.10;;;;;;5070720;28;20472;-68
2022/06/24 08:24:46;;;;;;;5.53;2.75;;;28.00;55.40;;;;;;5069156;28;20036;-68
2022/06/24 08:27:12;;;;;;;4.70;2.80;;;28.10;55.40;;;;;;5070233;28;20040;-68
2022/06/24 08:29:38;;;;;;;4.07;2.70;;;28.20;55.00;;;;;;5069641;28;20048;-68
2022/06/24 08:32:04;;;;;;;4.75;2.92;;;28.20;54.10;;;;;;5070980;28;20141;-68
2022/06/24 08:34:30;;;;;;;5.53;3.03;;;28.30;54.40;;;;;;5069662;28;20112;-68
2022/06/24 08:36:56;;;;;;;5.05;3.22;;;28.30;54.40;;;;;;5066265;28;20108;-68
2022/06/24 08:39:21;;;;;;;3.88;2.63;;;28.40;53.90;;;;;;5055262;28;20024;-68
2022/06/24 08:41:50;;;;;;;6.15;3.00;;;28.40;53.50;;;;;;5066894;28;20024;-68
2022/06/24 08:44:16;;;;;;;11.98;3.22;;;28.40;53.10;;;;;;5068750;28;20102;-68
2022/06/24 08:46:42;;;;;;;5.55;2.70;;;28.50;53.10;;;;;;5069332;28;20085;-68
2022/06/24 08:49:08;;;;;;;6.93;2.72;;;28.60;53.30;;;;;;5056724;28;20545;-68
2022/06/24 08:51:34;;;;;;;7.95;3.05;;;28.60;53.30;;;;;;5065371;28;20060;-68
2022/06/24 08:54:02;;;;;;;8.63;2.80;;;28.70;53.80;;;;;;5069032;28;20397;-69
2022/06/24 08:56:28;;;;;;;18.17;3.30;;;28.70;53.50;;;;;;5070144;28;20058;-67
2022/06/24 08:58:55;;;;;;;5.28;2.58;;;28.80;53.90;;;;;;5059179;28;20391;-68
2022/06/24 09:01:21;;;;;;;7.22;2.88;;;28.80;53.00;;;;;;5060829;28;20027;-67
2022/06/24 09:03:48;;;;;;;4.40;3.13;;;28.90;53.40;;;;;;5069039;28;20024;-67
2022/06/24 09:06:15;;;;;;;7.85;3.15;;;29.00;53.20;;;;;;5069033;28;20045;-67
2022/06/24 09:08:48;;;;;;;4.13;2.90;;;29.10;53.10;;;;;;5058537;28;20109;-67
2022/06/24 09:11:14;;;;;;;6.15;2.78;;;29.10;52.90;;;;;;5057572;28;20051;-67
2022/06/24 09:13:48;;;;;;;7.00;3.10;;;29.20;52.60;;;;;;5066449;28;20024;-67
2022/06/24 09:16:17;;;;;;;5.80;2.63;;;29.20;52.30;;;;;;5068234;28;20067;-67
2022/06/24 09:18:54;;;;;;;5.97;2.88;;;29.30;52.20;;;;;;5067458;28;20040;-68
2022/06/24 09:21:22;;;;;;;5.93;2.65;;;29.30;51.70;;;;;;5069566;28;20029;-68
2022/06/24 09:23:56;;;;;;;8.00;2.90;;;29.40;51.80;;;;;;5069040;28;20024;-68
2022/06/24 09:26:39;;;;;;;5.53;2.75;;;29.40;51.80;;;;;;5069761;28;20047;-67
2022/06/24 09:29:15;;;;;;;4.05;2.63;;;29.40;51.10;;;;;;5057038;28;20116;-68
2022/06/24 09:31:41;;;;;;;5.60;2.40;;;29.50;51.20;;;;;;5056287;28;20037;-67
2022/06/24 09:34:10;;;;;;;7.78;3.15;;;29.50;51.20;;;;;;5063618;28;20033;-64
2022/06/24 09:36:38;;;;;;;4.38;3.10;;;29.50;50.90;;;;;;5069420;28;20027;-64
2022/06/24 09:39:07;;;;;;;6.45;3.13;;;29.50;51.10;;;;;;5075457;28;20074;-65
2022/06/24 09:41:54;;;;;;;5.63;2.45;;;29.60;50.50;;;;;;5056624;28;20052;-64
2022/06/24 09:44:20;;;;;;;6.70;2.53;;;29.60;50.60;;;;;;5057456;28;20029;-65
2022/06/24 09:46:48;;;;;;;4.43;2.30;;;29.60;50.30;;;;;;5056622;28;20033;-65
2022/06/24 09:49:15;;;;;;;11.85;2.90;;;29.70;50.00;;;;;;5057505;28;20025;-66
2022/06/24 09:51:44;;;;;;;4.45;2.80;;;29.70;50.20;;;;;;5070324;28;20113;-65
2022/06/24 09:54:10;;;;;;;4.15;2.30;;;29.70;48.90;;;;;;5065483;28;20407;-65
2022/06/24 09:56:38;;;;;;;3.55;2.25;;;29.70;48.20;;;;;;5057607;28;20388;-65
2022/06/24 10:01:49;;;;;;;3.58;2.10;;;29.80;48.10;;;;;;5057875;28;20037;-65
2022/06/24 10:04:20;;;;;;;4.00;2.15;;;29.80;47.10;;;;;;5070683;28;20108;-65
2022/06/24 10:06:47;;;;;;;8.48;2.30;;;29.90;46.80;;;;;;5077823;28;20115;-65
2022/06/24 10:09:14;;;;;;;3.97;2.42;;;29.90;46.30;;;;;;5077190;28;20044;-65
2022/06/24 10:11:44;;;;;;;6.70;2.63;;;29.90;46.40;;;;;;5060429;28;20032;-65
2022/06/24 10:14:12;;;;;;;4.90;2.50;;;30.00;47.00;;;;;;5057560;28;20025;-66
2022/06/24 10:16:40;;;;;;;3.70;2.05;;;30.00;46.60;;;;;;5056976;28;20488;-66
2022/06/24 10:19:09;;;;;;;2.65;2.28;;;30.00;47.00;;;;;;5057615;28;20099;-65
2022/06/24 10:21:35;;;;;;;7.35;2.55;;;30.00;46.80;;;;;;5068472;28;20474;-65
2022/06/24 10:24:16;;;;;;;6.10;2.80;;;30.00;47.50;;;;;;5077369;28;20032;-65
2022/06/24 10:26:47;;;;;;;3.15;2.20;;;30.10;47.60;;;;;;5076171;28;20060;-66
2022/06/24 10:29:26;;;;;;;3.70;2.45;;;30.10;47.60;;;;;;5057409;28;20028;-65
2022/06/24 10:31:56;;;;;;;3.47;2.55;;;30.20;47.70;;;;;;5057516;28;20091;-66
2022/06/24 10:34:25;;;;;;;8.25;2.72;;;30.30;47.90;;;;;;5057363;28;20029;-65
2022/06/24 10:36:58;;;;;;;6.60;2.42;;;30.30;47.70;;;;;;5057404;28;20029;-66
2022/06/24 10:39:25;;;;;;;3.50;2.30;;;30.30;47.90;;;;;;5074556;28;20016;-66
2022/06/24 10:42:06;;;;;;;3.92;2.42;;;30.30;47.60;;;;;;5075802;28;20308;-65
2022/06/24 10:44:49;;;;;;;4.55;2.22;;;30.30;47.60;;;;;;5068021;28;20028;-65
2022/06/24 10:47:16;;;;;;;7.55;2.45;;;30.40;47.80;;;;;;5072561;28;20071;-65
2022/06/24 10:49:51;;;;;;;4.13;2.55;;;30.50;48.20;;;;;;5070572;28;20021;-65
2022/06/24 10:52:47;;;;;;;3.58;2.97;;;30.50;48.60;;;;;;5072137;28;20287;-69
2022/06/24 10:55:28;;;;;;;5.03;2.83;;;30.50;48.30;;;;;;5056396;28;20035;-68
2022/06/24 10:57:57;;;;;;;2.67;2.05;;;30.60;48.70;;;;;;5065792;28;20044;-69
2022/06/24 11:00:28;;;;;;;4.32;2.45;;;30.60;47.90;;;;;;5073214;28;20029;-68
2022/06/24 11:03:18;;;;;;;3.33;2.65;;;30.60;48.30;;;;;;5059543;28;20151;-68
2022/06/24 11:05:46;;;;;;;4.00;2.50;;;30.70;48.50;;;;;;5070986;28;20081;-69
2022/06/24 11:08:24;;;;;;;4.90;3.13;;;30.70;48.30;;;;;;5068947;28;20102;-69
2022/06/24 11:10:50;;;;;;;5.03;2.95;;;30.70;48.70;;;;;;5068068;28;20037;-68
2022/06/24 11:13:18;;;;;;;4.03;2.58;;;30.70;48.80;;;;;;5057423;28;20024;-68
2022/06/24 11:15:46;;;;;;;7.50;3.00;;;30.70;48.60;;;;;;5071704;28;20039;-68
2022/06/24 11:18:19;;;;;;;4.38;3.20;;;30.80;48.80;;;;;;5065841;28;20028;-66
2022/06/24 11:21:17;;;;;;;7.63;3.15;;;30.80;49.10;;;;;;5055240;28;20126;-68
2022/06/24 11:23:44;;;;;;;7.90;3.22;;;30.90;48.80;;;;;;5058597;28;20178;-68
2022/06/24 11:26:18;;;;;;;4.00;2.83;;;30.90;48.80;;;;;;5060502;28;20036;-68
2022/06/24 11:28:51;;;;;;;6.45;2.88;;;30.90;48.40;;;;;;5076931;28;20051;-68
2022/06/24 11:31:22;;;;;;;18.93;3.43;;;30.90;47.90;;;;;;5074410;28;20070;-68
2022/06/24 11:34:08;;;;;;;5.20;2.80;;;31.00;48.40;;;;;;5064491;28;20021;-65
2022/06/24 11:36:35;;;;;;;5.50;2.72;;;31.00;47.40;;;;;;5071950;28;20044;-65
2022/06/24 11:39:06;;;;;;;5.10;2.92;;;31.00;48.00;;;;;;5061190;28;20432;-66
2022/06/24 11:41:37;;;;;;;6.57;3.05;;;31.00;47.20;;;;;;5072068;28;20040;-65
2022/06/24 11:44:03;;;;;;;5.78;2.90;;;31.00;47.90;;;;;;5065732;28;20064;-65
2022/06/24 11:46:29;;;;;;;5.95;3.03;;;31.00;47.90;;;;;;5068680;28;20069;-64
2022/06/24 11:49:04;;;;;;;5.05;2.67;;;31.10;47.40;;;;;;5065156;28;20536;-65
2022/06/24 11:51:29;;;;;;;6.72;2.60;;;31.10;47.50;;;;;;5052450;28;20029;-66
2022/06/24 11:54:05;;;;;;;6.72;2.63;;;31.10;47.70;;;;;;5058744;28;20491;-65
2022/06/24 11:56:33;;;;;;;4.22;2.65;;;31.20;48.00;;;;;;5058797;28;20111;-65
2022/06/24 11:59:01;;;;;;;3.72;2.65;;;31.30;47.20;;;;;;5054077;28;20484;-64
2022/06/24 12:01:27;;;;;;;9.95;2.70;;;31.30;46.30;;;;;;5054828;28;20115;-66
2022/06/24 12:03:56;;;;;;;7.93;2.22;;;31.40;46.90;;;;;;5053996;28;20033;-65
2022/06/24 12:06:23;;;;;;;7.25;2.85;;;31.50;46.40;;;;;;5052452;28;20086;-64
2022/06/24 12:08:49;;;;;;;3.42;2.40;;;31.50;46.60;;;;;;5063019;28;20068;-64
2022/06/24 12:11:20;;;;;;;5.43;2.78;;;31.50;46.40;;;;;;5071582;28;20108;-64
2022/06/24 12:13:59;;;;;;;9.82;2.85;;;31.60;46.10;;;;;;5060344;28;20165;-65
2022/06/24 12:16:29;;;;;;;7.10;2.95;;;31.60;46.30;;;;;;5056171;28;20136;-64
2022/06/24 12:18:55;;;;;;;6.80;2.60;;;31.70;46.20;;;;;;5063164;28;20098;-64
2022/06/24 12:21:26;;;;;;;5.35;2.30;;;31.90;45.50;;;;;;5069329;28;20028;-64
2022/06/24 12:23:52;;;;;;;4.65;2.38;;;32.00;45.50;;;;;;5064893;28;20021;-64
2022/06/24 12:26:20;;;;;;;6.88;3.17;;;32.20;45.50;;;;;;5066621;28;20033;-65
2022/06/24 12:29:06;;;;;;;8.07;2.65;;;32.30;45.10;;;;;;5063088;28;20463;-65
2022/06/24 12:31:34;;;;;;;5.97;2.70;;;32.40;45.30;;;;;;5065824;28;20411;-66
2022/06/24 12:34:02;;;;;;;8.32;2.70;;;32.50;45.50;;;;;;5063464;28;20033;-65
2022/06/24 12:36:41;;;;;;;6.10;2.40;;;32.60;44.60;;;;;;5055346;28;20688;-65
2022/06/24 12:39:09;;;;;;;4.05;2.22;;;32.70;44.50;;;;;;5066549;28;20573;-66
2022/06/24 12:41:46;;;;;;;3.65;2.65;;;32.80;44.20;;;;;;5067296;28;20488;-65
2022/06/24 12:44:12;;;;;;;6.72;2.00;;;33.00;43.60;;;;;;5066105;28;20059;-65
2022/06/24 12:52:36;;;;;;;7.00;2.30;;;33.10;42.00;;;;;;5065792;28;20432;-65
2022/06/24 12:55:04;;;;;;;5.43;2.10;;;33.20;42.10;;;;;;5062591;28;20036;-65
2022/06/24 12:57:30;;;;;;;4.22;2.05;;;33.20;42.10;;;;;;5068171;28;20041;-65
2022/06/24 12:59:56;;;;;;;10.90;2.10;;;33.30;41.50;;;;;;5057552;28;20031;-65
2022/06/24 13:02:22;;;;;;;7.85;2.42;;;33.30;41.10;;;;;;5052045;28;20024;-65
2022/06/24 13:04:47;;;;;;;7.15;2.13;;;33.30;42.10;;;;;;5061960;28;20044;-66